Aomori, Japan
Current Conditions -  °F | °C
As of 7:00 AM on Thursday 27 Nov 2014 (Local Time) from RJSA Reporting Station
Scattered Clouds Scattered Clouds  
Wind Chill: 36°   Ceiling: Unl
Heat Index: 36°   Visibility: 6mi
Dew Point: 34°   Wind: 2mph
Humidity: 93%   Direction: 210°SSW
Pressure: 30.09"   Gusts: NA
Location:  40.83°N, 140.74°E
Report Text: RJSA 262200Z 21002KT 9999 FEW030 SCT070 02/01 Q1019
Loading
Personal Weather Stations






























Interactive Weather Map New forecast layout! Learn more

10-Day Weather Forecast

Advertisements
Track Severe Weather on mobile